sensor_id;sensor_type;location;lat;lon;timestamp;P1;durP1;ratioP1;P2;durP2;ratioP2
50585;SDS011;36542;51.700;8.846;2023-04-25T00:00:40;22.90;;;9.83;;
50585;SDS011;36542;51.700;8.846;2023-04-25T00:03:05;18.33;;;10.43;;
50585;SDS011;36542;51.700;8.846;2023-04-25T00:05:31;21.70;;;9.57;;
50585;SDS011;36542;51.700;8.846;2023-04-25T00:07:57;26.23;;;10.90;;
50585;SDS011;36542;51.700;8.846;2023-04-25T00:10:23;20.40;;;10.10;;
50585;SDS011;36542;51.700;8.846;2023-04-25T00:12:48;24.03;;;10.23;;
50585;SDS011;36542;51.700;8.846;2023-04-25T00:15:14;18.67;;;9.73;;
50585;SDS011;36542;51.700;8.846;2023-04-25T00:17:40;20.13;;;9.63;;
50585;SDS011;36542;51.700;8.846;2023-04-25T00:20:06;18.27;;;9.10;;
50585;SDS011;36542;51.700;8.846;2023-04-25T00:22:34;19.47;;;8.23;;
50585;SDS011;36542;51.700;8.846;2023-04-25T00:25:02;18.53;;;8.47;;
50585;SDS011;36542;51.700;8.846;2023-04-25T00:27:28;18.73;;;9.10;;
50585;SDS011;36542;51.700;8.846;2023-04-25T00:29:54;15.77;;;7.93;;
50585;SDS011;36542;51.700;8.846;2023-04-25T00:32:19;17.30;;;8.37;;
50585;SDS011;36542;51.700;8.846;2023-04-25T00:34:45;18.87;;;8.80;;
50585;SDS011;36542;51.700;8.846;2023-04-25T00:37:11;14.20;;;8.00;;
50585;SDS011;36542;51.700;8.846;2023-04-25T00:39:36;17.37;;;8.60;;
50585;SDS011;36542;51.700;8.846;2023-04-25T00:42:02;22.60;;;9.17;;
50585;SDS011;36542;51.700;8.846;2023-04-25T00:44:28;18.93;;;9.03;;
50585;SDS011;36542;51.700;8.846;2023-04-25T00:46:55;19.60;;;10.53;;
50585;SDS011;36542;51.700;8.846;2023-04-25T00:49:21;24.93;;;9.70;;
50585;SDS011;36542;51.700;8.846;2023-04-25T00:51:46;23.80;;;10.40;;
50585;SDS011;36542;51.700;8.846;2023-04-25T00:54:12;25.80;;;11.10;;
50585;SDS011;36542;51.700;8.846;2023-04-25T00:56:39;23.93;;;11.63;;
50585;SDS011;36542;51.700;8.846;2023-04-25T00:59:05;28.67;;;11.67;;
50585;SDS011;36542;51.700;8.846;2023-04-25T01:01:30;23.97;;;12.30;;
50585;SDS011;36542;51.700;8.846;2023-04-25T01:03:56;28.60;;;12.17;;
50585;SDS011;36542;51.700;8.846;2023-04-25T01:06:23;26.77;;;12.43;;
50585;SDS011;36542;51.700;8.846;2023-04-25T01:08:49;29.27;;;12.93;;
50585;SDS011;36542;51.700;8.846;2023-04-25T01:11:16;23.17;;;12.17;;
50585;SDS011;36542;51.700;8.846;2023-04-25T01:13:41;29.20;;;13.60;;
50585;SDS011;36542;51.700;8.846;2023-04-25T01:16:07;29.87;;;12.87;;
50585;SDS011;36542;51.700;8.846;2023-04-25T01:18:33;25.60;;;12.20;;
50585;SDS011;36542;51.700;8.846;2023-04-25T01:21:06;24.40;;;12.30;;
50585;SDS011;36542;51.700;8.846;2023-04-25T01:23:33;26.27;;;12.27;;
50585;SDS011;36542;51.700;8.846;2023-04-25T01:25:59;27.60;;;13.00;;
50585;SDS011;36542;51.700;8.846;2023-04-25T01:28:26;31.70;;;13.80;;
50585;SDS011;36542;51.700;8.846;2023-04-25T01:30:52;27.97;;;12.90;;
50585;SDS011;36542;51.700;8.846;2023-04-25T01:33:18;28.43;;;13.10;;
50585;SDS011;36542;51.700;8.846;2023-04-25T01:35:45;29.40;;;12.50;;
50585;SDS011;36542;51.700;8.846;2023-04-25T01:38:12;30.87;;;13.20;;
50585;SDS011;36542;51.700;8.846;2023-04-25T01:40:38;32.50;;;14.30;;
50585;SDS011;36542;51.700;8.846;2023-04-25T01:43:05;27.07;;;13.80;;
50585;SDS011;36542;51.700;8.846;2023-04-25T01:45:31;30.57;;;14.37;;
50585;SDS011;36542;51.700;8.846;2023-04-25T01:47:57;28.93;;;12.87;;
50585;SDS011;36542;51.700;8.846;2023-04-25T01:50:24;33.00;;;14.47;;
50585;SDS011;36542;51.700;8.846;2023-04-25T01:52:50;35.33;;;14.57;;
50585;SDS011;36542;51.700;8.846;2023-04-25T01:55:16;30.60;;;14.63;;
50585;SDS011;36542;51.700;8.846;2023-04-25T01:57:41;37.43;;;14.80;;
50585;SDS011;36542;51.700;8.846;2023-04-25T02:00:07;35.10;;;15.10;;
50585;SDS011;36542;51.700;8.846;2023-04-25T02:02:35;33.10;;;16.07;;
50585;SDS011;36542;51.700;8.846;2023-04-25T02:05:00;35.40;;;15.10;;
50585;SDS011;36542;51.700;8.846;2023-04-25T02:07:26;37.43;;;17.57;;
50585;SDS011;36542;51.700;8.846;2023-04-25T02:09:52;35.70;;;17.83;;
50585;SDS011;36542;51.700;8.846;2023-04-25T02:12:17;39.23;;;17.93;;
50585;SDS011;36542;51.700;8.846;2023-04-25T02:14:43;39.67;;;17.63;;
50585;SDS011;36542;51.700;8.846;2023-04-25T02:17:08;39.73;;;17.03;;
50585;SDS011;36542;51.700;8.846;2023-04-25T02:19:34;39.57;;;19.07;;
50585;SDS011;36542;51.700;8.846;2023-04-25T02:21:59;38.33;;;18.77;;
50585;SDS011;36542;51.700;8.846;2023-04-25T02:24:25;39.20;;;18.83;;
50585;SDS011;36542;51.700;8.846;2023-04-25T02:26:52;45.30;;;18.67;;
50585;SDS011;36542;51.700;8.846;2023-04-25T02:29:18;43.93;;;19.13;;
50585;SDS011;36542;51.700;8.846;2023-04-25T02:31:43;51.10;;;20.30;;
50585;SDS011;36542;51.700;8.846;2023-04-25T02:34:09;43.60;;;20.40;;
50585;SDS011;36542;51.700;8.846;2023-04-25T02:36:34;41.63;;;20.47;;
50585;SDS011;36542;51.700;8.846;2023-04-25T02:39:00;43.43;;;21.20;;
50585;SDS011;36542;51.700;8.846;2023-04-25T02:41:26;46.53;;;21.10;;
50585;SDS011;36542;51.700;8.846;2023-04-25T02:43:52;46.70;;;20.63;;
50585;SDS011;36542;51.700;8.846;2023-04-25T02:46:17;52.77;;;21.73;;
50585;SDS011;36542;51.700;8.846;2023-04-25T02:48:43;45.77;;;20.23;;
50585;SDS011;36542;51.700;8.846;2023-04-25T02:51:08;44.83;;;20.83;;
50585;SDS011;36542;51.700;8.846;2023-04-25T02:53:34;48.80;;;21.43;;
50585;SDS011;36542;51.700;8.846;2023-04-25T02:56:00;50.30;;;22.57;;
50585;SDS011;36542;51.700;8.846;2023-04-25T02:58:26;43.60;;;22.17;;
50585;SDS011;36542;51.700;8.846;2023-04-25T03:00:51;48.77;;;22.77;;
50585;SDS011;36542;51.700;8.846;2023-04-25T03:03:17;54.37;;;22.40;;
50585;SDS011;36542;51.700;8.846;2023-04-25T03:05:43;52.47;;;22.80;;
50585;SDS011;36542;51.700;8.846;2023-04-25T03:08:09;43.10;;;22.47;;
50585;SDS011;36542;51.700;8.846;2023-04-25T03:10:34;47.87;;;23.30;;
50585;SDS011;36542;51.700;8.846;2023-04-25T03:13:00;43.33;;;23.40;;
50585;SDS011;36542;51.700;8.846;2023-04-25T03:15:25;44.80;;;23.43;;
50585;SDS011;36542;51.700;8.846;2023-04-25T03:17:51;48.27;;;23.63;;
50585;SDS011;36542;51.700;8.846;2023-04-25T03:20:16;51.10;;;23.57;;
50585;SDS011;36542;51.700;8.846;2023-04-25T03:22:42;46.30;;;24.23;;
50585;SDS011;36542;51.700;8.846;2023-04-25T03:25:08;52.67;;;25.33;;
50585;SDS011;36542;51.700;8.846;2023-04-25T03:27:33;41.60;;;20.93;;
50585;SDS011;36542;51.700;8.846;2023-04-25T03:29:59;44.97;;;21.93;;
50585;SDS011;36542;51.700;8.846;2023-04-25T03:32:24;50.47;;;23.47;;
50585;SDS011;36542;51.700;8.846;2023-04-25T03:34:50;44.50;;;22.60;;
50585;SDS011;36542;51.700;8.846;2023-04-25T03:37:15;53.97;;;24.17;;
50585;SDS011;36542;51.700;8.846;2023-04-25T03:39:41;53.63;;;24.40;;
50585;SDS011;36542;51.700;8.846;2023-04-25T03:42:06;47.23;;;21.57;;
50585;SDS011;36542;51.700;8.846;2023-04-25T03:44:32;43.80;;;21.47;;
50585;SDS011;36542;51.700;8.846;2023-04-25T03:46:57;47.10;;;21.73;;
50585;SDS011;36542;51.700;8.846;2023-04-25T03:49:24;49.73;;;22.60;;
50585;SDS011;36542;51.700;8.846;2023-04-25T03:51:50;50.07;;;20.93;;
50585;SDS011;36542;51.700;8.846;2023-04-25T03:54:15;50.17;;;22.23;;
50585;SDS011;36542;51.700;8.846;2023-04-25T03:56:41;47.30;;;20.27;;
50585;SDS011;36542;51.700;8.846;2023-04-25T03:59:06;50.47;;;21.70;;
50585;SDS011;36542;51.700;8.846;2023-04-25T04:01:32;44.83;;;21.50;;
50585;SDS011;36542;51.700;8.846;2023-04-25T04:03:58;46.43;;;20.47;;
50585;SDS011;36542;51.700;8.846;2023-04-25T04:06:23;49.07;;;20.07;;
50585;SDS011;36542;51.700;8.846;2023-04-25T04:08:49;53.70;;;23.00;;
50585;SDS011;36542;51.700;8.846;2023-04-25T04:11:15;35.83;;;17.07;;
50585;SDS011;36542;51.700;8.846;2023-04-25T04:13:40;37.60;;;15.57;;
50585;SDS011;36542;51.700;8.846;2023-04-25T04:16:06;32.23;;;13.57;;
50585;SDS011;36542;51.700;8.846;2023-04-25T04:18:31;32.83;;;14.00;;
50585;SDS011;36542;51.700;8.846;2023-04-25T04:20:58;37.87;;;14.37;;
50585;SDS011;36542;51.700;8.846;2023-04-25T04:23:23;37.27;;;12.90;;
50585;SDS011;36542;51.700;8.846;2023-04-25T04:25:49;33.63;;;12.03;;
50585;SDS011;36542;51.700;8.846;2023-04-25T04:28:15;29.47;;;13.53;;
50585;SDS011;36542;51.700;8.846;2023-04-25T04:30:41;36.60;;;13.37;;
50585;SDS011;36542;51.700;8.846;2023-04-25T04:33:07;45.07;;;14.47;;
50585;SDS011;36542;51.700;8.846;2023-04-25T04:35:33;29.77;;;13.23;;
50585;SDS011;36542;51.700;8.846;2023-04-25T04:37:58;39.60;;;12.70;;
50585;SDS011;36542;51.700;8.846;2023-04-25T04:40:24;38.33;;;13.63;;
50585;SDS011;36542;51.700;8.846;2023-04-25T04:42:50;35.77;;;12.70;;
50585;SDS011;36542;51.700;8.846;2023-04-25T04:45:15;41.33;;;13.20;;
50585;SDS011;36542;51.700;8.846;2023-04-25T04:47:41;44.83;;;14.27;;
50585;SDS011;36542;51.700;8.846;2023-04-25T04:50:08;47.07;;;17.03;;
50585;SDS011;36542;51.700;8.846;2023-04-25T04:52:35;46.47;;;17.63;;
50585;SDS011;36542;51.700;8.846;2023-04-25T04:55:01;41.83;;;15.83;;
50585;SDS011;36542;51.700;8.846;2023-04-25T04:57:27;47.30;;;16.37;;
50585;SDS011;36542;51.700;8.846;2023-04-25T04:59:53;45.93;;;17.67;;
50585;SDS011;36542;51.700;8.846;2023-04-25T05:02:19;47.50;;;17.40;;
50585;SDS011;36542;51.700;8.846;2023-04-25T05:04:44;50.33;;;20.43;;
50585;SDS011;36542;51.700;8.846;2023-04-25T05:07:10;54.43;;;19.83;;
50585;SDS011;36542;51.700;8.846;2023-04-25T05:09:36;52.47;;;18.80;;
50585;SDS011;36542;51.700;8.846;2023-04-25T05:12:01;45.27;;;17.63;;
50585;SDS011;36542;51.700;8.846;2023-04-25T05:14:27;42.33;;;17.13;;
50585;SDS011;36542;51.700;8.846;2023-04-25T05:16:52;44.93;;;17.27;;
50585;SDS011;36542;51.700;8.846;2023-04-25T05:19:18;39.83;;;16.97;;
50585;SDS011;36542;51.700;8.846;2023-04-25T05:21:43;45.57;;;15.70;;
50585;SDS011;36542;51.700;8.846;2023-04-25T05:24:09;45.87;;;16.83;;
50585;SDS011;36542;51.700;8.846;2023-04-25T05:26:34;40.57;;;15.17;;
50585;SDS011;36542;51.700;8.846;2023-04-25T05:29:00;44.73;;;14.83;;
50585;SDS011;36542;51.700;8.846;2023-04-25T05:31:25;39.80;;;14.47;;
50585;SDS011;36542;51.700;8.846;2023-04-25T05:33:51;38.70;;;14.67;;
50585;SDS011;36542;51.700;8.846;2023-04-25T05:36:18;43.60;;;15.93;;
50585;SDS011;36542;51.700;8.846;2023-04-25T05:38:43;38.40;;;14.17;;
50585;SDS011;36542;51.700;8.846;2023-04-25T05:41:09;41.30;;;15.73;;
50585;SDS011;36542;51.700;8.846;2023-04-25T05:43:34;50.30;;;15.50;;
50585;SDS011;36542;51.700;8.846;2023-04-25T05:46:00;43.30;;;14.47;;
50585;SDS011;36542;51.700;8.846;2023-04-25T05:48:25;36.33;;;13.27;;
50585;SDS011;36542;51.700;8.846;2023-04-25T05:50:51;38.60;;;14.40;;
50585;SDS011;36542;51.700;8.846;2023-04-25T05:53:17;34.40;;;12.60;;
50585;SDS011;36542;51.700;8.846;2023-04-25T05:55:43;29.37;;;12.83;;
50585;SDS011;36542;51.700;8.846;2023-04-25T05:58:08;41.30;;;12.33;;
50585;SDS011;36542;51.700;8.846;2023-04-25T06:00:34;31.00;;;11.70;;
50585;SDS011;36542;51.700;8.846;2023-04-25T06:02:59;33.10;;;12.53;;
50585;SDS011;36542;51.700;8.846;2023-04-25T06:05:26;31.47;;;11.13;;
50585;SDS011;36542;51.700;8.846;2023-04-25T06:07:51;27.43;;;11.03;;
50585;SDS011;36542;51.700;8.846;2023-04-25T06:10:17;33.50;;;12.33;;
50585;SDS011;36542;51.700;8.846;2023-04-25T06:12:43;24.93;;;10.83;;
50585;SDS011;36542;51.700;8.846;2023-04-25T06:15:08;32.33;;;11.03;;
50585;SDS011;36542;51.700;8.846;2023-04-25T06:17:35;30.90;;;11.60;;
50585;SDS011;36542;51.700;8.846;2023-04-25T06:20:00;35.67;;;11.33;;
50585;SDS011;36542;51.700;8.846;2023-04-25T06:22:26;34.77;;;10.83;;
50585;SDS011;36542;51.700;8.846;2023-04-25T06:24:52;34.37;;;9.87;;
50585;SDS011;36542;51.700;8.846;2023-04-25T06:27:17;25.50;;;9.77;;
50585;SDS011;36542;51.700;8.846;2023-04-25T06:29:43;27.73;;;9.33;;
50585;SDS011;36542;51.700;8.846;2023-04-25T06:32:08;31.77;;;9.67;;
50585;SDS011;36542;51.700;8.846;2023-04-25T06:34:34;24.97;;;8.00;;
50585;SDS011;36542;51.700;8.846;2023-04-25T06:36:59;23.50;;;8.27;;
50585;SDS011;36542;51.700;8.846;2023-04-25T06:39:25;28.40;;;8.00;;
50585;SDS011;36542;51.700;8.846;2023-04-25T06:41:50;23.23;;;8.23;;
50585;SDS011;36542;51.700;8.846;2023-04-25T06:44:16;26.73;;;8.97;;
50585;SDS011;36542;51.700;8.846;2023-04-25T06:46:41;22.53;;;8.43;;
50585;SDS011;36542;51.700;8.846;2023-04-25T06:49:07;27.40;;;7.43;;
50585;SDS011;36542;51.700;8.846;2023-04-25T06:51:32;18.70;;;6.97;;
50585;SDS011;36542;51.700;8.846;2023-04-25T06:53:58;16.03;;;7.00;;
50585;SDS011;36542;51.700;8.846;2023-04-25T06:56:23;20.97;;;8.23;;
50585;SDS011;36542;51.700;8.846;2023-04-25T06:58:49;22.73;;;7.10;;
50585;SDS011;36542;51.700;8.846;2023-04-25T07:01:15;27.20;;;8.00;;
50585;SDS011;36542;51.700;8.846;2023-04-25T07:03:40;23.77;;;7.30;;
50585;SDS011;36542;51.700;8.846;2023-04-25T07:06:06;14.47;;;6.40;;
50585;SDS011;36542;51.700;8.846;2023-04-25T07:08:32;23.97;;;6.77;;
50585;SDS011;36542;51.700;8.846;2023-04-25T07:10:57;21.00;;;7.23;;
50585;SDS011;36542;51.700;8.846;2023-04-25T07:13:23;23.33;;;6.43;;
50585;SDS011;36542;51.700;8.846;2023-04-25T07:15:48;17.00;;;6.27;;
50585;SDS011;36542;51.700;8.846;2023-04-25T07:18:14;18.27;;;6.33;;
50585;SDS011;36542;51.700;8.846;2023-04-25T07:20:40;18.40;;;6.60;;
50585;SDS011;36542;51.700;8.846;2023-04-25T07:23:05;21.50;;;6.27;;
50585;SDS011;36542;51.700;8.846;2023-04-25T07:25:31;16.03;;;7.33;;
50585;SDS011;36542;51.700;8.846;2023-04-25T07:27:57;14.00;;;5.70;;
50585;SDS011;36542;51.700;8.846;2023-04-25T07:30:22;21.90;;;6.47;;
50585;SDS011;36542;51.700;8.846;2023-04-25T07:32:48;13.97;;;5.60;;
50585;SDS011;36542;51.700;8.846;2023-04-25T07:35:15;17.73;;;6.17;;
50585;SDS011;36542;51.700;8.846;2023-04-25T07:37:40;24.27;;;6.57;;
50585;SDS011;36542;51.700;8.846;2023-04-25T07:40:06;17.43;;;5.97;;
50585;SDS011;36542;51.700;8.846;2023-04-25T07:42:33;17.87;;;5.50;;
50585;SDS011;36542;51.700;8.846;2023-04-25T07:44:59;18.83;;;5.23;;
50585;SDS011;36542;51.700;8.846;2023-04-25T07:47:25;17.00;;;6.37;;
50585;SDS011;36542;51.700;8.846;2023-04-25T07:49:51;17.27;;;5.70;;
50585;SDS011;36542;51.700;8.846;2023-04-25T07:52:17;15.67;;;5.23;;
50585;SDS011;36542;51.700;8.846;2023-04-25T07:54:42;19.07;;;6.07;;
50585;SDS011;36542;51.700;8.846;2023-04-25T07:57:08;18.67;;;5.03;;
50585;SDS011;36542;51.700;8.846;2023-04-25T07:59:34;15.17;;;5.53;;
50585;SDS011;36542;51.700;8.846;2023-04-25T08:01:59;17.10;;;5.50;;
50585;SDS011;36542;51.700;8.846;2023-04-25T08:04:25;12.23;;;4.63;;
50585;SDS011;36542;51.700;8.846;2023-04-25T08:06:51;12.30;;;4.80;;
50585;SDS011;36542;51.700;8.846;2023-04-25T08:09:20;16.87;;;4.87;;
50585;SDS011;36542;51.700;8.846;2023-04-25T08:11:45;11.80;;;3.83;;
50585;SDS011;36542;51.700;8.846;2023-04-25T08:14:12;15.90;;;4.40;;
50585;SDS011;36542;51.700;8.846;2023-04-25T08:16:38;15.80;;;4.27;;
50585;SDS011;36542;51.700;8.846;2023-04-25T08:19:03;16.77;;;5.23;;
50585;SDS011;36542;51.700;8.846;2023-04-25T08:21:29;14.90;;;4.20;;
50585;SDS011;36542;51.700;8.846;2023-04-25T08:23:56;11.70;;;4.03;;
50585;SDS011;36542;51.700;8.846;2023-04-25T08:26:23;11.83;;;3.67;;
50585;SDS011;36542;51.700;8.846;2023-04-25T08:28:49;14.10;;;4.23;;
50585;SDS011;36542;51.700;8.846;2023-04-25T08:31:14;15.27;;;3.80;;
50585;SDS011;36542;51.700;8.846;2023-04-25T08:33:40;13.03;;;3.70;;
50585;SDS011;36542;51.700;8.846;2023-04-25T08:36:05;10.80;;;3.07;;
50585;SDS011;36542;51.700;8.846;2023-04-25T08:38:31;10.73;;;3.80;;
50585;SDS011;36542;51.700;8.846;2023-04-25T08:40:57;11.23;;;3.73;;
50585;SDS011;36542;51.700;8.846;2023-04-25T08:43:24;10.33;;;3.80;;
50585;SDS011;36542;51.700;8.846;2023-04-25T08:45:50;12.13;;;2.93;;
50585;SDS011;36542;51.700;8.846;2023-04-25T08:48:19;9.13;;;3.10;;
50585;SDS011;36542;51.700;8.846;2023-04-25T08:53:17;11.60;;;3.33;;
50585;SDS011;36542;51.700;8.846;2023-04-25T08:55:49;13.17;;;3.70;;
50585;SDS011;36542;51.700;8.846;2023-04-25T08:58:15;11.63;;;3.50;;
50585;SDS011;36542;51.700;8.846;2023-04-25T09:00:42;10.03;;;3.23;;
50585;SDS011;36542;51.700;8.846;2023-04-25T09:03:08;15.43;;;3.03;;
50585;SDS011;36542;51.700;8.846;2023-04-25T09:05:36;7.17;;;3.30;;
50585;SDS011;36542;51.700;8.846;2023-04-25T09:08:02;13.27;;;3.60;;
50585;SDS011;36542;51.700;8.846;2023-04-25T09:10:27;9.53;;;3.40;;
50585;SDS011;36542;51.700;8.846;2023-04-25T09:13:06;10.63;;;2.73;;
50585;SDS011;36542;51.700;8.846;2023-04-25T09:15:47;6.33;;;2.70;;
50585;SDS011;36542;51.700;8.846;2023-04-25T09:18:21;11.63;;;3.17;;
50585;SDS011;36542;51.700;8.846;2023-04-25T09:20:49;9.33;;;3.50;;
50585;SDS011;36542;51.700;8.846;2023-04-25T09:23:14;9.13;;;3.10;;
50585;SDS011;36542;51.700;8.846;2023-04-25T09:25:40;7.87;;;3.03;;
50585;SDS011;36542;51.700;8.846;2023-04-25T09:28:07;9.07;;;2.97;;
50585;SDS011;36542;51.700;8.846;2023-04-25T09:30:34;5.13;;;2.37;;
50585;SDS011;36542;51.700;8.846;2023-04-25T09:33:04;6.87;;;2.80;;
50585;SDS011;36542;51.700;8.846;2023-04-25T09:35:35;5.13;;;2.43;;
50585;SDS011;36542;51.700;8.846;2023-04-25T09:38:08;11.67;;;3.03;;
50585;SDS011;36542;51.700;8.846;2023-04-25T09:40:38;11.00;;;3.10;;
50585;SDS011;36542;51.700;8.846;2023-04-25T09:43:08;7.47;;;2.90;;
50585;SDS011;36542;51.700;8.846;2023-04-25T09:45:40;6.63;;;2.60;;
50585;SDS011;36542;51.700;8.846;2023-04-25T09:48:10;8.07;;;2.80;;
50585;SDS011;36542;51.700;8.846;2023-04-25T09:50:36;9.03;;;2.87;;
50585;SDS011;36542;51.700;8.846;2023-04-25T09:53:03;9.17;;;2.63;;
50585;SDS011;36542;51.700;8.846;2023-04-25T09:55:32;10.00;;;2.80;;
50585;SDS011;36542;51.700;8.846;2023-04-25T09:58:00;9.47;;;2.90;;
50585;SDS011;36542;51.700;8.846;2023-04-25T10:00:30;8.03;;;2.53;;
50585;SDS011;36542;51.700;8.846;2023-04-25T10:02:56;10.00;;;2.57;;
50585;SDS011;36542;51.700;8.846;2023-04-25T10:05:24;6.40;;;2.57;;
50585;SDS011;36542;51.700;8.846;2023-04-25T10:07:52;5.40;;;2.37;;
50585;SDS011;36542;51.700;8.846;2023-04-25T10:10:18;6.73;;;1.93;;
50585;SDS011;36542;51.700;8.846;2023-04-25T10:12:44;9.43;;;2.60;;
50585;SDS011;36542;51.700;8.846;2023-04-25T10:15:10;9.07;;;2.33;;
50585;SDS011;36542;51.700;8.846;2023-04-25T10:17:38;4.60;;;2.47;;
50585;SDS011;36542;51.700;8.846;2023-04-25T10:20:05;10.67;;;2.83;;
50585;SDS011;36542;51.700;8.846;2023-04-25T10:22:36;8.40;;;2.50;;
50585;SDS011;36542;51.700;8.846;2023-04-25T10:25:04;8.10;;;2.40;;
50585;SDS011;36542;51.700;8.846;2023-04-25T10:27:31;6.73;;;2.20;;
50585;SDS011;36542;51.700;8.846;2023-04-25T10:30:04;8.70;;;2.30;;
50585;SDS011;36542;51.700;8.846;2023-04-25T10:32:36;7.17;;;1.97;;
50585;SDS011;36542;51.700;8.846;2023-04-25T10:35:09;5.17;;;2.20;;
50585;SDS011;36542;51.700;8.846;2023-04-25T10:37:56;6.57;;;2.27;;
50585;SDS011;36542;51.700;8.846;2023-04-25T10:40:22;6.90;;;1.83;;
50585;SDS011;36542;51.700;8.846;2023-04-25T10:42:48;6.67;;;2.27;;
50585;SDS011;36542;51.700;8.846;2023-04-25T10:45:13;8.17;;;2.47;;
50585;SDS011;36542;51.700;8.846;2023-04-25T10:47:48;5.27;;;2.03;;
50585;SDS011;36542;51.700;8.846;2023-04-25T10:50:16;6.87;;;2.30;;
50585;SDS011;36542;51.700;8.846;2023-04-25T10:52:42;4.90;;;1.93;;
50585;SDS011;36542;51.700;8.846;2023-04-25T10:55:09;4.10;;;2.17;;
50585;SDS011;36542;51.700;8.846;2023-04-25T10:57:42;7.23;;;1.70;;
50585;SDS011;36542;51.700;8.846;2023-04-25T11:03:20;6.23;;;2.00;;
50585;SDS011;36542;51.700;8.846;2023-04-25T11:05:34;5.83;;;2.20;;
50585;SDS011;36542;51.700;8.846;2023-04-25T11:08:01;11.00;;;2.40;;
50585;SDS011;36542;51.700;8.846;2023-04-25T11:10:28;6.73;;;2.20;;
50585;SDS011;36542;51.700;8.846;2023-04-25T11:12:55;6.77;;;2.10;;
50585;SDS011;36542;51.700;8.846;2023-04-25T11:15:21;4.87;;;1.80;;
50585;SDS011;36542;51.700;8.846;2023-04-25T11:17:47;4.47;;;2.33;;
50585;SDS011;36542;51.700;8.846;2023-04-25T11:20:13;6.33;;;2.00;;
50585;SDS011;36542;51.700;8.846;2023-04-25T11:22:39;12.70;;;2.73;;
50585;SDS011;36542;51.700;8.846;2023-04-25T11:25:08;7.97;;;2.77;;
50585;SDS011;36542;51.700;8.846;2023-04-25T11:27:54;7.73;;;2.87;;
50585;SDS011;36542;51.700;8.846;2023-04-25T11:30:22;9.43;;;2.47;;
50585;SDS011;36542;51.700;8.846;2023-04-25T11:32:48;5.53;;;2.77;;
50585;SDS011;36542;51.700;8.846;2023-04-25T11:35:14;9.67;;;3.47;;
50585;SDS011;36542;51.700;8.846;2023-04-25T11:37:40;5.83;;;2.93;;
50585;SDS011;36542;51.700;8.846;2023-04-25T11:40:07;4.53;;;2.27;;
50585;SDS011;36542;51.700;8.846;2023-04-25T11:42:35;6.23;;;2.83;;
50585;SDS011;36542;51.700;8.846;2023-04-25T11:45:02;7.10;;;2.30;;
50585;SDS011;36542;51.700;8.846;2023-04-25T11:47:30;6.03;;;2.63;;
50585;SDS011;36542;51.700;8.846;2023-04-25T11:49:57;11.50;;;2.87;;
50585;SDS011;36542;51.700;8.846;2023-04-25T11:52:43;5.23;;;2.00;;
50585;SDS011;36542;51.700;8.846;2023-04-25T11:55:12;5.97;;;2.40;;
50585;SDS011;36542;51.700;8.846;2023-04-25T11:57:42;7.97;;;2.20;;
50585;SDS011;36542;51.700;8.846;2023-04-25T12:00:19;6.33;;;2.20;;
50585;SDS011;36542;51.700;8.846;2023-04-25T12:02:46;6.57;;;2.20;;
50585;SDS011;36542;51.700;8.846;2023-04-25T12:05:13;4.57;;;1.80;;
50585;SDS011;36542;51.700;8.846;2023-04-25T12:07:40;5.30;;;1.83;;
50585;SDS011;36542;51.700;8.846;2023-04-25T12:10:10;5.83;;;2.13;;
50585;SDS011;36542;51.700;8.846;2023-04-25T12:12:38;5.30;;;1.90;;
50585;SDS011;36542;51.700;8.846;2023-04-25T12:17:45;3.53;;;2.00;;
50585;SDS011;36542;51.700;8.846;2023-04-25T12:20:18;5.20;;;1.80;;
50585;SDS011;36542;51.700;8.846;2023-04-25T12:22:46;6.00;;;2.00;;
50585;SDS011;36542;51.700;8.846;2023-04-25T12:25:13;4.10;;;1.73;;
50585;SDS011;36542;51.700;8.846;2023-04-25T12:28:14;4.17;;;2.00;;
50585;SDS011;36542;51.700;8.846;2023-04-25T12:33:30;4.03;;;1.93;;
50585;SDS011;36542;51.700;8.846;2023-04-25T12:36:00;5.17;;;2.13;;
50585;SDS011;36542;51.700;8.846;2023-04-25T12:38:31;4.40;;;2.10;;
50585;SDS011;36542;51.700;8.846;2023-04-25T12:41:01;4.93;;;1.80;;
50585;SDS011;36542;51.700;8.846;2023-04-25T12:43:27;4.33;;;1.97;;
50585;SDS011;36542;51.700;8.846;2023-04-25T12:45:53;4.77;;;2.27;;
50585;SDS011;36542;51.700;8.846;2023-04-25T12:48:20;4.20;;;1.73;;
50585;SDS011;36542;51.700;8.846;2023-04-25T12:50:46;4.13;;;1.80;;
50585;SDS011;36542;51.700;8.846;2023-04-25T12:53:19;4.67;;;2.20;;
50585;SDS011;36542;51.700;8.846;2023-04-25T12:55:46;6.37;;;2.13;;
50585;SDS011;36542;51.700;8.846;2023-04-25T12:58:12;6.77;;;2.37;;
50585;SDS011;36542;51.700;8.846;2023-04-25T13:00:38;5.07;;;2.03;;
50585;SDS011;36542;51.700;8.846;2023-04-25T13:03:04;11.10;;;2.43;;
50585;SDS011;36542;51.700;8.846;2023-04-25T13:05:30;6.53;;;2.27;;
50585;SDS011;36542;51.700;8.846;2023-04-25T13:07:55;5.03;;;2.00;;
50585;SDS011;36542;51.700;8.846;2023-04-25T13:10:21;7.10;;;2.30;;
50585;SDS011;36542;51.700;8.846;2023-04-25T13:12:46;3.77;;;2.00;;
50585;SDS011;36542;51.700;8.846;2023-04-25T13:15:12;4.90;;;1.83;;
50585;SDS011;36542;51.700;8.846;2023-04-25T13:17:38;3.83;;;1.60;;
50585;SDS011;36542;51.700;8.846;2023-04-25T13:20:04;6.03;;;2.20;;
50585;SDS011;36542;51.700;8.846;2023-04-25T13:22:33;6.67;;;2.00;;
50585;SDS011;36542;51.700;8.846;2023-04-25T13:25:01;5.33;;;2.00;;
50585;SDS011;36542;51.700;8.846;2023-04-25T13:27:27;6.47;;;1.80;;
50585;SDS011;36542;51.700;8.846;2023-04-25T13:29:52;3.77;;;2.00;;
50585;SDS011;36542;51.700;8.846;2023-04-25T13:32:18;3.67;;;1.70;;
50585;SDS011;36542;51.700;8.846;2023-04-25T13:34:43;4.53;;;2.07;;
50585;SDS011;36542;51.700;8.846;2023-04-25T13:37:09;6.03;;;2.20;;
50585;SDS011;36542;51.700;8.846;2023-04-25T13:39:35;4.07;;;1.93;;
50585;SDS011;36542;51.700;8.846;2023-04-25T13:42:00;5.93;;;2.47;;
50585;SDS011;36542;51.700;8.846;2023-04-25T13:44:26;6.03;;;2.80;;
50585;SDS011;36542;51.700;8.846;2023-04-25T13:46:52;5.70;;;2.10;;
50585;SDS011;36542;51.700;8.846;2023-04-25T13:49:17;3.60;;;1.83;;
50585;SDS011;36542;51.700;8.846;2023-04-25T13:51:43;4.63;;;2.07;;
50585;SDS011;36542;51.700;8.846;2023-04-25T13:54:08;7.10;;;2.50;;
50585;SDS011;36542;51.700;8.846;2023-04-25T13:56:34;5.97;;;2.73;;
50585;SDS011;36542;51.700;8.846;2023-04-25T13:58:59;5.30;;;2.23;;
50585;SDS011;36542;51.700;8.846;2023-04-25T14:01:25;5.27;;;2.50;;
50585;SDS011;36542;51.700;8.846;2023-04-25T14:03:52;7.90;;;2.80;;
50585;SDS011;36542;51.700;8.846;2023-04-25T14:06:17;4.83;;;2.07;;
50585;SDS011;36542;51.700;8.846;2023-04-25T14:08:47;5.03;;;2.17;;
50585;SDS011;36542;51.700;8.846;2023-04-25T14:11:13;7.00;;;2.10;;
50585;SDS011;36542;51.700;8.846;2023-04-25T14:13:39;4.47;;;2.73;;
50585;SDS011;36542;51.700;8.846;2023-04-25T14:16:04;5.50;;;2.10;;
50585;SDS011;36542;51.700;8.846;2023-04-25T14:18:30;3.87;;;1.97;;
50585;SDS011;36542;51.700;8.846;2023-04-25T14:20:55;2.13;;;1.43;;
50585;SDS011;36542;51.700;8.846;2023-04-25T14:23:21;3.73;;;1.27;;
50585;SDS011;36542;51.700;8.846;2023-04-25T14:25:46;2.73;;;1.37;;
50585;SDS011;36542;51.700;8.846;2023-04-25T14:28:12;2.60;;;1.17;;
50585;SDS011;36542;51.700;8.846;2023-04-25T14:30:38;4.23;;;1.53;;
50585;SDS011;36542;51.700;8.846;2023-04-25T14:33:03;2.73;;;1.27;;
50585;SDS011;36542;51.700;8.846;2023-04-25T14:35:29;2.80;;;1.40;;
50585;SDS011;36542;51.700;8.846;2023-04-25T14:37:54;2.10;;;1.60;;
50585;SDS011;36542;51.700;8.846;2023-04-25T14:40:20;3.07;;;1.40;;